Time;durP1;ratioP1;P1;durP2;ratioP2;P2;SDS_P1;SDS_P2;PMS_P1;PMS_P2;Temp;Humidity;BMP_temperature;BMP_pressure;BME280_temperature;BME280_humidity;BME280_pressure;Samples;Min_cycle;Max_cycle;Signal;HPM_P1;HPM_P2
2024/03/02 00:00:30;;;;;;;1.92;1.83;;;;;;;4.83;100.00;91825.09;2114679;28;20016;-80
2024/03/02 00:01:32;;;;;;;2.25;2.10;;;;;;;4.83;100.00;91817.16;2106316;28;20078;-78
2024/03/02 00:02:33;;;;;;;2.17;2.08;;;;;;;4.71;100.00;91820.44;2105793;28;20035;-81
2024/03/02 00:03:34;;;;;;;2.22;2.13;;;;;;;4.67;100.00;91827.69;2114209;28;20055;-80
2024/03/02 00:04:35;;;;;;;2.17;2.08;;;;;;;4.77;100.00;91824.81;2114253;28;20023;-80
2024/03/02 00:05:36;;;;;;;2.40;2.30;;;;;;;4.80;100.00;91831.94;2106492;28;20035;-81
2024/03/02 00:06:37;;;;;;;2.20;2.10;;;;;;;4.55;100.00;91827.16;2111846;28;20020;-79
2024/03/02 00:07:42;;;;;;;2.00;1.90;;;;;;;4.68;100.00;91829.94;2118954;27;20124;-79
2024/03/02 00:08:43;;;;;;;1.90;1.80;;;;;;;4.61;100.00;91834.59;2110420;28;20044;-81
2024/03/02 00:09:44;;;;;;;2.65;2.40;;;;;;;4.62;100.00;91831.56;2102237;28;20023;-82
2024/03/02 00:10:45;;;;;;;2.10;2.00;;;;;;;4.53;100.00;91823.44;2123028;27;20077;-80
2024/03/02 00:11:46;;;;;;;2.00;1.90;;;;;;;4.58;100.00;91833.53;2115583;27;20036;-81
2024/03/02 00:12:48;;;;;;;2.25;2.15;;;;;;;4.62;100.00;91830.81;2100828;28;20028;-81
2024/03/02 00:13:52;;;;;;;1.95;1.85;;;;;;;4.58;100.00;91830.16;2104800;28;20068;-81
2024/03/02 00:14:53;;;;;;;2.33;2.22;;;;;;;4.52;100.00;91832.50;2108407;27;20074;-80
2024/03/02 00:15:56;;;;;;;2.25;2.15;;;;;;;4.50;100.00;91832.94;2128086;27;20023;-80
2024/03/02 00:16:57;;;;;;;2.03;1.92;;;;;;;4.67;100.00;91830.34;2100969;27;20080;-80
2024/03/02 00:17:58;;;;;;;2.22;2.13;;;;;;;4.97;100.00;91835.38;2042685;28;21115;-80
2024/03/02 00:19:06;;;;;;;2.28;2.17;;;;;;;4.98;100.00;91830.81;2051306;27;20031;-81
2024/03/02 00:20:09;;;;;;;2.22;2.13;;;;;;;4.97;100.00;91838.03;2056092;27;20055;-80
2024/03/02 00:21:10;;;;;;;2.13;2.03;;;;;;;4.79;100.00;91837.66;2069195;27;20019;-80
2024/03/02 00:22:12;;;;;;;2.28;2.17;;;;;;;4.67;100.00;91843.56;2064710;28;20077;-80
2024/03/02 00:23:18;;;;;;;2.28;2.17;;;;;;;4.70;100.00;91840.13;2065128;28;23817;-81
2024/03/02 00:24:27;;;;;;;2.25;2.15;;;;;;;4.69;100.00;91836.69;2079568;27;22122;-81
2024/03/02 00:25:46;;;;;;;2.20;2.10;;;;;;;4.58;100.00;91832.81;2081110;27;20038;-81
2024/03/02 00:26:47;;;;;;;2.17;2.08;;;;;;;4.48;100.00;91829.22;2084988;27;20074;-81
2024/03/02 00:27:49;;;;;;;1.95;1.83;;;;;;;4.27;100.00;91833.75;2091590;27;20034;-81
2024/03/02 00:28:56;;;;;;;1.92;1.83;;;;;;;4.14;100.00;91837.41;2081803;27;20115;-80
2024/03/02 00:29:57;;;;;;;2.40;2.30;;;;;;;4.13;100.00;91841.22;2093220;27;20059;-83
2024/03/02 00:30:59;;;;;;;2.30;2.20;;;;;;;4.24;100.00;91836.47;2098938;27;20105;-83
2024/03/02 00:32:01;;;;;;;2.30;2.20;;;;;;;4.24;100.00;91836.47;2106249;27;20027;-81
2024/03/02 00:33:07;;;;;;;2.33;2.22;;;;;;;4.22;100.00;91842.16;2096775;28;20065;-81
2024/03/02 00:34:08;;;;;;;1.90;1.80;;;;;;;4.46;100.00;91836.81;2100797;28;20869;-80
2024/03/02 00:35:10;;;;;;;2.00;1.90;;;;;;;4.46;100.00;91842.09;2093092;28;20139;-81
2024/03/02 00:36:13;;;;;;;2.08;1.98;;;;;;;4.44;100.00;91844.41;2091115;28;20047;-80
2024/03/02 00:37:14;;;;;;;1.83;1.73;;;;;;;4.43;100.00;91843.63;2092741;28;22107;-81
2024/03/02 00:38:16;;;;;;;1.98;1.88;;;;;;;4.49;100.00;91843.94;2105854;28;20024;-80
2024/03/02 00:39:17;;;;;;;2.13;2.00;;;;;;;4.39;100.00;91837.69;2124247;27;20065;-80
2024/03/02 00:40:19;;;;;;;2.20;2.10;;;;;;;4.29;100.00;91843.91;2124029;27;20437;-81
2024/03/02 00:41:29;;;;;;;2.10;2.00;;;;;;;4.29;100.00;91841.28;2124213;27;20033;-83
2024/03/02 00:42:31;;;;;;;2.25;2.15;;;;;;;4.23;100.00;91850.84;2116972;27;20552;-81
2024/03/02 00:43:52;;;;;;;1.95;1.85;;;;;;;4.22;100.00;91830.84;2124203;27;20038;-80
2024/03/02 00:44:53;;;;;;;1.80;1.70;;;;;;;4.27;100.00;91846.97;2115522;28;20106;-82
2024/03/02 00:45:55;;;;;;;1.63;1.52;;;;;;;4.16;100.00;91843.03;2107401;28;20020;-80
2024/03/02 00:46:56;;;;;;;1.60;1.50;;;;;;;4.03;100.00;91842.88;2114316;28;20032;-80
2024/03/02 00:47:57;;;;;;;1.30;1.30;;;;;;;3.97;100.00;91844.50;2119319;27;20023;-80
2024/03/02 00:49:00;;;;;;;1.42;1.33;;;;;;;3.85;100.00;91850.38;2123959;27;20033;-81
2024/03/02 00:50:03;;;;;;;1.70;1.58;;;;;;;3.89;100.00;91843.88;2107304;28;20028;-80
2024/03/02 00:51:04;;;;;;;1.25;1.25;;;;;;;3.83;100.00;91839.47;2103579;28;20027;-79
2024/03/02 00:52:06;;;;;;;1.45;1.35;;;;;;;3.82;100.00;91843.25;2106961;28;20028;-81
2024/03/02 00:53:12;;;;;;;1.67;1.58;;;;;;;3.84;100.00;91847.00;2114526;28;20050;-81
2024/03/02 00:54:14;;;;;;;1.77;1.67;;;;;;;3.71;100.00;91836.25;2114829;27;20511;-80
2024/03/02 00:55:15;;;;;;;1.70;1.60;;;;;;;3.75;100.00;91834.31;2115546;27;20019;-80
2024/03/02 00:56:16;;;;;;;2.30;2.20;;;;;;;3.88;100.00;91839.75;2115578;27;20019;-80
2024/03/02 00:57:17;;;;;;;1.83;1.73;;;;;;;3.83;100.00;91839.47;2107134;28;20080;-81
2024/03/02 00:58:18;;;;;;;2.00;1.90;;;;;;;3.92;100.00;91831.78;2106581;28;20016;-80
2024/03/02 00:59:19;;;;;;;2.10;2.00;;;;;;;3.90;100.00;91834.81;2115315;28;20110;-81
2024/03/02 01:00:20;;;;;;;2.28;2.08;;;;;;;3.84;100.00;91830.41;2115564;28;20484;-81
2024/03/02 01:01:22;;;;;;;2.00;1.90;;;;;;;3.83;100.00;91834.19;2115420;28;20361;-81
2024/03/02 01:02:23;;;;;;;2.20;2.10;;;;;;;3.98;100.00;91836.16;2106680;28;20035;-80
2024/03/02 01:03:24;;;;;;;2.10;2.00;;;;;;;3.89;100.00;91828.03;2110786;27;20020;-80
2024/03/02 01:04:25;;;;;;;2.20;2.10;;;;;;;3.76;100.00;91841.09;2115184;28;20118;-79
2024/03/02 01:05:26;;;;;;;2.35;2.25;;;;;;;3.83;100.00;91837.59;2098880;28;20029;-81
2024/03/02 01:06:27;;;;;;;2.30;2.10;;;;;;;3.88;100.00;91828.44;2105824;28;20082;-82
2024/03/02 01:07:28;;;;;;;2.25;2.15;;;;;;;3.79;100.00;91832.34;2122960;27;20015;-81
2024/03/02 01:08:29;;;;;;;2.25;2.15;;;;;;;3.71;100.00;91838.91;2123279;27;20023;-80
2024/03/02 01:09:30;;;;;;;2.10;2.00;;;;;;;3.74;100.00;91835.47;2106653;28;20027;-81
2024/03/02 01:10:31;;;;;;;2.30;2.20;;;;;;;3.77;100.00;91836.53;2114893;28;20094;-80
2024/03/02 01:11:32;;;;;;;2.15;2.05;;;;;;;3.85;100.00;91835.28;2122674;27;20113;-81
2024/03/02 01:12:33;;;;;;;2.30;2.20;;;;;;;3.81;100.00;91837.22;2105027;27;20262;-82
2024/03/02 01:13:34;;;;;;;2.05;1.95;;;;;;;3.87;100.00;91834.88;2007494;28;20086;-82
2024/03/02 01:14:35;;;;;;;2.25;2.15;;;;;;;3.78;100.00;91838.78;2084337;27;20030;-81
2024/03/02 01:15:36;;;;;;;2.20;2.10;;;;;;;3.82;100.00;91836.09;2020743;27;22184;-82
2024/03/02 01:16:37;;;;;;;2.20;2.00;;;;;;;3.78;100.00;91832.78;1997386;28;20063;-81
2024/03/02 01:17:39;;;;;;;2.25;2.15;;;;;;;3.84;100.00;91828.50;2011537;28;20074;-81
2024/03/02 01:18:40;;;;;;;2.20;2.10;;;;;;;3.79;100.00;91835.00;2014256;28;20050;-81
2024/03/02 01:19:42;;;;;;;2.70;2.50;;;;;;;3.79;100.00;91835.00;2038591;28;20043;-80
2024/03/02 01:20:43;;;;;;;3.58;2.40;;;;;;;3.68;100.00;91831.03;2063249;28;21782;-79
2024/03/02 01:21:44;;;;;;;2.30;2.20;;;;;;;3.74;100.00;91832.06;2082384;28;20066;-81
2024/03/02 01:22:45;;;;;;;2.30;2.20;;;;;;;3.74;100.00;91832.81;2084706;28;20050;-81
2024/03/02 01:23:46;;;;;;;2.60;2.50;;;;;;;3.77;100.00;91837.28;2089842;28;21789;-81
2024/03/02 01:24:47;;;;;;;2.28;2.17;;;;;;;3.79;100.00;91835.00;2100086;27;21024;-80
2024/03/02 01:25:48;;;;;;;2.40;2.30;;;;;;;3.69;100.00;91835.19;2083734;28;20040;-79
2024/03/02 01:26:49;;;;;;;2.50;2.40;;;;;;;3.80;100.00;91835.75;2077428;28;20056;-81
2024/03/02 01:27:50;;;;;;;2.20;2.10;;;;;;;3.75;100.00;91831.66;2097888;28;20817;-80
2024/03/02 01:28:51;;;;;;;2.60;2.50;;;;;;;3.80;100.00;91833.09;2095824;27;20037;-80
2024/03/02 01:29:52;;;;;;;2.38;2.28;;;;;;;3.75;100.00;91831.66;2079031;28;22505;-82
2024/03/02 01:30:53;;;;;;;2.05;1.95;;;;;;;3.68;100.00;91829.13;2071200;28;20027;-81
2024/03/02 01:31:54;;;;;;;2.17;2.08;;;;;;;3.64;100.00;91831.09;2013668;28;22706;-81
2024/03/02 01:32:55;;;;;;;1.90;1.80;;;;;;;3.67;100.00;91829.53;2030393;28;20032;-80
2024/03/02 01:33:57;;;;;;;2.20;2.10;;;;;;;3.56;100.00;91831.59;1967358;28;20074;-81
2024/03/02 01:34:57;;;;;;;2.10;2.00;;;;;;;3.39;100.00;91834.16;1977504;27;22883;-81
2024/03/02 01:35:58;;;;;;;2.17;2.08;;;;;;;3.31;100.00;91832.75;2007343;28;20046;-81
2024/03/02 01:36:59;;;;;;;1.85;1.75;;;;;;;3.37;100.00;91828.50;2014555;28;21491;-81
2024/03/02 01:38:01;;;;;;;1.80;1.70;;;;;;;3.28;100.00;91831.66;1976585;27;20149;-80
2024/03/02 01:39:02;;;;;;;2.10;1.90;;;;;;;3.39;100.00;91833.41;1869411;28;24065;-81
2024/03/02 01:40:08;;;;;;;1.95;1.85;;;;;;;3.33;100.00;91829.72;1857906;28;20157;-81
2024/03/02 01:41:10;;;;;;;1.67;1.58;;;;;;;3.41;100.00;91836.38;1892094;27;20071;-80
2024/03/02 01:42:11;;;;;;;1.70;1.60;;;;;;;3.40;100.00;91830.34;1887408;27;22315;-80
2024/03/02 01:43:12;;;;;;;1.70;1.60;;;;;;;3.43;100.00;91826.91;1866537;28;21602;-80
2024/03/02 01:44:13;;;;;;;1.65;1.60;;;;;;;3.29;100.00;91827.13;1855225;28;20110;-81
2024/03/02 01:45:14;;;;;;;1.60;1.50;;;;;;;3.24;100.00;91824.94;1870718;28;22076;-81
2024/03/02 01:46:16;;;;;;;1.80;1.70;;;;;;;3.26;100.00;91823.41;1910162;28;21457;-81
2024/03/02 01:47:17;;;;;;;1.63;1.52;;;;;;;3.52;100.00;91826.41;1895099;28;20038;-80
2024/03/02 01:48:19;;;;;;;1.73;1.63;;;;;;;3.49;100.00;91827.19;1923655;28;20026;-80
2024/03/02 01:49:20;;;;;;;1.45;1.45;;;;;;;3.40;100.00;91825.06;1955169;27;20042;-80
2024/03/02 01:50:28;;;;;;;1.60;1.50;;;;;;;3.33;100.00;91825.19;1948191;28;22898;-80
2024/03/02 01:51:29;;;;;;;1.60;1.50;;;;;;;3.21;100.00;91825.75;1971898;27;23107;-80
2024/03/02 01:52:30;;;;;;;1.77;1.67;;;;;;;3.17;100.00;91830.34;1975236;27;22975;-81
2024/03/02 01:53:32;;;;;;;1.90;1.80;;;;;;;3.16;100.00;91826.19;1987404;27;20157;-79
2024/03/02 01:54:33;;;;;;;1.70;1.60;;;;;;;3.09;100.00;91824.41;1992172;28;20031;-80
2024/03/02 01:55:34;;;;;;;1.75;1.65;;;;;;;3.08;100.00;91815.00;2034442;28;20048;-81
2024/03/02 01:56:35;;;;;;;1.80;1.70;;;;;;;3.10;100.00;91825.91;2080739;27;20047;-80
2024/03/02 01:57:36;;;;;;;2.03;1.92;;;;;;;2.90;100.00;91819.81;2101520;27;20023;-82
2024/03/02 01:58:38;;;;;;;1.90;1.80;;;;;;;2.95;100.00;91816.72;2083438;27;20027;-81
2024/03/02 01:59:39;;;;;;;2.20;2.10;;;;;;;3.02;100.00;91819.22;2050741;28;20158;-81
2024/03/02 02:00:40;;;;;;;2.17;2.08;;;;;;;3.10;100.00;91817.97;2074234;28;20340;-81
2024/03/02 02:01:41;;;;;;;2.10;2.00;;;;;;;2.99;100.00;91822.69;2099618;28;20024;-81
2024/03/02 02:02:43;;;;;;;2.10;2.00;;;;;;;2.96;100.00;91823.47;2074297;28;20031;-80
2024/03/02 02:03:44;;;;;;;1.90;1.80;;;;;;;2.96;100.00;91824.22;2105130;27;20031;-81
2024/03/02 02:04:45;;;;;;;1.80;1.70;;;;;;;2.93;100.00;91816.34;2061131;27;20106;-80
2024/03/02 02:05:47;;;;;;;1.90;1.80;;;;;;;2.85;100.00;91823.63;2064344;27;21487;-82
2024/03/02 02:06:48;;;;;;;2.03;1.92;;;;;;;2.74;100.00;91823.03;2068515;27;20031;-81
2024/03/02 02:07:50;;;;;;;2.10;2.00;;;;;;;2.53;100.00;91816.88;2075263;27;20027;-80
2024/03/02 02:08:50;;;;;;;1.90;1.80;;;;;;;2.74;100.00;91818.50;2071027;28;20450;-81
2024/03/02 02:09:51;;;;;;;1.83;1.73;;;;;;;2.79;100.00;91819.94;2082817;27;20075;-82
2024/03/02 02:10:52;;;;;;;2.00;1.90;;;;;;;2.81;100.00;91816.88;2085683;27;21763;-82
2024/03/02 02:11:53;;;;;;;2.05;1.95;;;;;;;2.74;100.00;91818.50;2092302;27;20114;-80
2024/03/02 02:12:54;;;;;;;1.90;1.80;;;;;;;2.87;100.00;91807.41;2092575;28;20114;-82
2024/03/02 02:13:55;;;;;;;1.75;1.65;;;;;;;2.82;100.00;91811.22;2083277;28;20036;-80
2024/03/02 02:14:56;;;;;;;1.88;1.77;;;;;;;2.89;100.00;91810.38;2089905;28;20109;-80
2024/03/02 02:16:07;;;;;;;1.88;1.77;;;;;;;2.82;100.00;91815.78;2094572;28;20031;-81
2024/03/02 02:17:08;;;;;;;1.70;1.60;;;;;;;2.86;100.00;91816.47;2107512;28;20016;-80
2024/03/02 02:18:09;;;;;;;1.83;1.73;;;;;;;2.72;100.00;91818.16;2105675;28;20024;-80
2024/03/02 02:19:12;;;;;;;1.65;1.60;;;;;;;2.77;100.00;91817.72;2108134;28;20451;-81
2024/03/02 02:20:13;;;;;;;1.80;1.70;;;;;;;2.77;100.00;91822.97;2106259;28;20554;-81
2024/03/02 02:21:15;;;;;;;1.90;1.80;;;;;;;2.85;100.00;91818.34;2098120;28;20123;-82
2024/03/02 02:22:16;;;;;;;1.80;1.70;;;;;;;2.87;100.00;91810.78;2106291;28;20020;-80
2024/03/02 02:23:18;;;;;;;2.10;2.00;;;;;;;2.81;100.00;91817.66;2105988;28;20801;-80
2024/03/02 02:24:19;;;;;;;2.05;1.95;;;;;;;2.78;100.00;91819.19;2114531;28;20076;-81
2024/03/02 02:26:55;;;;;;;;;;;;;;;1.80;100.00;91820.00;2148875;27;20109;-82
2024/03/02 02:27:57;;;;;;;2.28;1.80;;;;;;;1.95;100.00;91812.69;2139018;27;20257;-82
2024/03/02 02:29:29;;;;;;;1.92;1.83;;;;;;;2.25;100.00;91815.34;2130285;27;20019;-83
2024/03/02 02:30:32;;;;;;;2.20;2.10;;;;;;;2.26;100.00;91816.84;2134831;27;20498;-82
2024/03/02 02:31:40;;;;;;;2.38;2.28;;;;;;;2.33;100.00;91816.03;2130563;27;20050;-81
2024/03/02 02:32:41;;;;;;;2.05;1.95;;;;;;;2.32;100.00;91809.22;2140113;27;20053;-82
2024/03/02 02:33:42;;;;;;;2.13;2.03;;;;;;;2.26;100.00;91816.84;2138181;27;20031;-82
2024/03/02 02:34:43;;;;;;;2.20;2.10;;;;;;;2.30;100.00;91800.97;2116025;28;20020;-82
2024/03/02 02:35:44;;;;;;;2.40;2.17;;;;;;;2.20;100.00;91805.25;2128198;27;20054;-83
2024/03/02 02:36:49;;;;;;;2.33;2.22;;;;;;;2.25;100.00;91814.59;2130311;27;20018;-81
2024/03/02 02:37:52;;;;;;;2.40;2.30;;;;;;;2.26;100.00;91816.09;2121850;27;20027;-83
2024/03/02 02:38:53;;;;;;;2.70;2.55;;;;;;;2.13;100.00;91805.31;2113471;28;20028;-81
2024/03/02 02:39:54;;;;;;;2.55;2.35;;;;;;;2.22;100.00;91812.75;2113363;28;20023;-82
2024/03/02 02:40:55;;;;;;;2.05;1.95;;;;;;;2.10;100.00;91806.09;2121638;27;20474;-82
2024/03/02 02:41:56;;;;;;;2.10;2.00;;;;;;;2.20;100.00;91807.13;2139087;27;20351;-81
2024/03/02 02:42:58;;;;;;;2.33;2.15;;;;;;;2.23;100.00;91812.34;2124083;27;20020;-81
2024/03/02 02:43:59;;;;;;;2.10;2.00;;;;;;;2.17;100.00;91807.91;2116816;27;20058;-82
2024/03/02 02:45:00;;;;;;;2.10;2.00;;;;;;;2.16;100.00;91801.16;2121866;27;20024;-81
2024/03/02 02:46:01;;;;;;;2.20;2.10;;;;;;;2.21;100.00;91806.72;2130285;27;20030;-82
2024/03/02 02:47:02;;;;;;;2.00;1.90;;;;;;;2.14;100.00;91798.91;2130243;27;20115;-82
2024/03/02 02:48:05;;;;;;;2.10;2.00;;;;;;;2.17;100.00;91803.38;2121726;28;20031;-82
2024/03/02 02:49:06;;;;;;;1.90;1.80;;;;;;;1.99;100.00;91797.59;2130441;27;20022;-81
2024/03/02 02:50:08;;;;;;;1.85;1.75;;;;;;;2.00;100.00;91805.09;2130276;27;20023;-81
2024/03/02 02:51:09;;;;;;;1.92;1.83;;;;;;;2.05;100.00;91798.63;2107413;28;20036;-82
2024/03/02 02:52:10;;;;;;;1.92;1.83;;;;;;;2.14;100.00;91795.53;2096572;28;20028;-82
2024/03/02 02:53:11;;;;;;;2.13;1.90;;;;;;;2.11;100.00;91788.41;2104674;28;20016;-82
2024/03/02 02:54:12;;;;;;;1.88;1.77;;;;;;;2.16;100.00;91798.53;2104739;28;20024;-81
2024/03/02 02:55:14;;;;;;;1.95;1.85;;;;;;;2.05;100.00;91789.97;2104788;28;20020;-81
2024/03/02 02:56:15;;;;;;;1.90;1.80;;;;;;;1.96;100.00;91782.56;2121583;28;20027;-82
2024/03/02 02:57:16;;;;;;;1.75;1.65;;;;;;;1.81;100.00;91787.25;2121788;28;20380;-83
2024/03/02 02:58:17;;;;;;;2.03;1.85;;;;;;;1.65;100.00;91785.13;2104902;28;20025;-81
2024/03/02 02:59:18;;;;;;;1.75;1.65;;;;;;;1.72;100.00;91792.22;2104828;28;20450;-82
2024/03/02 03:00:19;;;;;;;1.95;1.85;;;;;;;1.79;100.00;91794.03;2113104;28;20445;-82
2024/03/02 03:01:20;;;;;;;2.95;1.80;;;;;;;1.73;100.00;91786.56;2113308;28;20377;-82
2024/03/02 03:02:21;;;;;;;2.00;1.90;;;;;;;1.85;100.00;91792.47;2113002;28;20031;-82
2024/03/02 03:03:22;;;;;;;2.10;2.00;;;;;;;1.73;100.00;91794.47;2104922;28;20025;-83
2024/03/02 03:04:23;;;;;;;1.90;1.80;;;;;;;1.80;100.00;91793.66;2096087;28;20041;-83
2024/03/02 03:05:24;;;;;;;1.90;1.80;;;;;;;1.66;100.00;91799.03;2103300;28;20078;-80
2024/03/02 03:06:25;;;;;;;1.80;1.70;;;;;;;1.67;100.00;91796.03;2117272;28;20020;-83
2024/03/02 03:07:27;;;;;;;1.73;1.63;;;;;;;1.77;100.00;91797.06;2113328;28;20035;-83
2024/03/02 03:08:28;;;;;;;1.90;1.80;;;;;;;1.74;100.00;91787.31;2113129;28;20118;-82
2024/03/02 03:09:29;;;;;;;1.80;1.70;;;;;;;1.81;100.00;91789.88;2112950;27;20107;-81
2024/03/02 03:10:30;;;;;;;2.05;1.95;;;;;;;1.86;100.00;91794.72;2113147;28;20864;-82
2024/03/02 03:11:31;;;;;;;1.88;1.77;;;;;;;1.83;100.00;91784.94;2112809;28;20051;-82
2024/03/02 03:12:32;;;;;;;1.98;1.88;;;;;;;1.85;100.00;91790.59;2123655;27;20112;-81
2024/03/02 03:13:34;;;;;;;2.00;1.90;;;;;;;1.82;100.00;91787.97;2130217;27;20060;-82
2024/03/02 03:14:35;;;;;;;1.88;1.77;;;;;;;1.80;100.00;91788.38;2129998;27;20495;-82
2024/03/02 03:15:36;;;;;;;2.00;1.90;;;;;;;1.67;100.00;91782.88;2129907;27;20073;-81
2024/03/02 03:16:37;;;;;;;1.80;1.70;;;;;;;1.92;100.00;91787.84;2121488;27;20816;-83
2024/03/02 03:17:38;;;;;;;2.15;2.05;;;;;;;1.87;100.00;91790.94;2129957;27;20019;-82
2024/03/02 03:18:39;;;;;;;2.80;1.92;;;;;;;1.83;100.00;91798.13;2130283;27;20092;-82
2024/03/02 03:19:40;;;;;;;3.80;1.90;;;;;;;1.87;100.00;91785.66;2113160;28;20077;-82
2024/03/02 03:20:41;;;;;;;9.40;2.10;;;;;;;1.88;100.00;91795.03;2112895;28;20034;-81
2024/03/02 03:21:43;;;;;;;7.82;2.10;;;;;;;1.88;100.00;91794.31;2121540;27;20027;-84
2024/03/02 03:22:44;;;;;;;18.17;2.28;;;;;;;1.80;100.00;91792.88;2130201;27;20763;-82
2024/03/02 03:23:45;;;;;;;19.98;2.10;;;;;;;1.91;100.00;91796.91;2121468;28;20023;-81
2024/03/02 03:24:46;;;;;;;13.18;2.00;;;;;;;2.01;100.00;91798.66;2121516;27;20027;-82
2024/03/02 03:25:47;;;;;;;9.65;1.95;;;;;;;2.09;100.00;91801.97;2129897;27;20023;-82
2024/03/02 03:26:48;;;;;;;17.25;2.08;;;;;;;2.00;100.00;91793.81;2129819;27;20039;-81
2024/03/02 03:27:49;;;;;;;19.38;1.88;;;;;;;2.01;100.00;91793.41;2121418;28;20027;-82
2024/03/02 03:28:50;;;;;;;33.72;2.40;;;;;;;2.04;100.00;91799.03;2121245;27;20023;-82
2024/03/02 03:29:51;;;;;;;24.48;2.30;;;;;;;2.08;100.00;91791.84;2129961;27;20506;-82
2024/03/02 03:30:57;;;;;;;45.97;2.97;;;;;;;2.04;100.00;91804.31;2129804;27;20030;-82
2024/03/02 03:31:58;;;;;;;37.83;2.80;;;;;;;2.03;100.00;91797.53;2129789;27;20093;-82
2024/03/02 03:32:59;;;;;;;35.13;2.42;;;;;;;2.06;100.00;91799.38;2121307;28;20034;-83
2024/03/02 03:33:59;;;;;;;29.90;2.42;;;;;;;2.07;100.00;91799.00;2112625;27;20024;-82
2024/03/02 03:35:00;;;;;;;28.05;2.28;;;;;;;2.16;100.00;91799.28;2121195;27;20817;-81
2024/03/02 03:36:03;;;;;;;11.57;2.30;;;;;;;2.19;100.00;91792.44;2121393;27;20027;-83
2024/03/02 03:37:04;;;;;;;16.83;2.00;;;;;;;2.18;100.00;91791.69;2129581;27;20023;-81
2024/03/02 03:38:05;;;;;;;23.52;2.28;;;;;;;2.32;100.00;91797.94;2126030;27;20102;-83
2024/03/02 03:39:06;;;;;;;17.88;2.15;;;;;;;2.12;100.00;91795.19;2124164;27;20110;-81
2024/03/02 03:40:09;;;;;;;25.90;2.38;;;;;;;2.08;100.00;91799.75;2107323;28;20052;-81
2024/03/02 03:41:10;;;;;;;22.90;2.40;;;;;;;2.15;100.00;91797.00;2108054;27;20036;-83
2024/03/02 03:42:11;;;;;;;37.40;2.70;;;;;;;2.10;100.00;91800.81;2124032;27;20023;-82
2024/03/02 03:43:12;;;;;;;28.23;2.25;;;;;;;2.22;100.00;91794.31;2124678;27;20023;-81
2024/03/02 03:44:13;;;;;;;17.02;2.38;;;;;;;2.08;100.00;91799.75;2124585;27;20084;-82
2024/03/02 03:45:15;;;;;;;12.40;2.05;;;;;;;2.14;100.00;91798.16;2115532;28;20048;-82
2024/03/02 03:46:15;;;;;;;26.40;2.10;;;;;;;2.08;100.00;91787.31;2107290;28;20028;-81
2024/03/02 03:47:16;;;;;;;43.65;2.75;;;;;;;1.98;100.00;91796.09;2123930;27;20023;-82
2024/03/02 03:48:18;;;;;;;21.70;2.10;;;;;;;2.01;100.00;91803.19;2115622;28;20035;-82
2024/03/02 03:49:19;;;;;;;19.17;2.40;;;;;;;2.24;100.00;91792.03;2115714;27;20030;-82
2024/03/02 03:50:20;;;;;;;17.27;2.08;;;;;;;2.22;100.00;91796.94;2115621;28;20038;-83
2024/03/02 03:51:22;;;;;;;20.60;2.28;;;;;;;2.22;100.00;91800.31;2107149;28;20016;-82
2024/03/02 03:52:24;;;;;;;23.05;2.38;;;;;;;2.32;100.00;91795.31;2124336;27;20110;-81
2024/03/02 03:53:25;;;;;;;6.47;2.08;;;;;;;2.47;100.00;91792.09;2115607;28;20020;-82
2024/03/02 03:54:25;;;;;;;38.58;2.58;;;;;;;2.51;100.00;91792.81;2115482;28;20027;-82
2024/03/02 03:55:26;;;;;;;22.92;2.30;;;;;;;2.35;100.00;91794.53;2115572;27;20019;-83
2024/03/02 03:56:27;;;;;;;23.23;2.20;;;;;;;2.14;100.00;91795.53;2115404;28;20019;-81
2024/03/02 03:57:28;;;;;;;14.43;2.22;;;;;;;2.18;100.00;91791.69;2107095;28;20027;-82
2024/03/02 03:58:29;;;;;;;15.80;2.53;;;;;;;2.16;100.00;91796.63;2107283;28;20028;-82
2024/03/02 03:59:30;;;;;;;24.75;2.55;;;;;;;2.16;100.00;91799.28;2115585;28;20024;-81
2024/03/02 04:00:31;;;;;;;43.42;2.33;;;;;;;2.08;100.00;91794.47;2124169;27;20023;-82
2024/03/02 04:01:32;;;;;;;22.67;2.33;;;;;;;2.20;100.00;91796.59;2124461;27;20042;-82
2024/03/02 04:02:36;;;;;;;23.67;2.40;;;;;;;2.16;100.00;91796.63;2123985;27;20103;-83
2024/03/02 04:03:38;;;;;;;9.52;1.77;;;;;;;2.26;100.00;91795.75;2115849;28;20024;-81
2024/03/02 04:04:39;;;;;;;5.82;1.73;;;;;;;2.25;100.00;91794.25;2109941;28;20446;-82
2024/03/02 04:05:40;;;;;;;12.60;2.03;;;;;;;2.09;100.00;91798.59;2113453;28;20077;-82
2024/03/02 04:06:40;;;;;;;33.72;2.45;;;;;;;2.10;100.00;91800.81;2106975;28;20039;-82
2024/03/02 04:07:42;;;;;;;9.07;2.10;;;;;;;2.33;100.00;91802.84;2107052;28;20065;-82
2024/03/02 04:08:43;;;;;;;8.27;1.85;;;;;;;2.38;100.00;91801.66;2107278;28;20024;-81
2024/03/02 04:09:44;;;;;;;26.02;2.30;;;;;;;2.31;100.00;91791.94;2122041;27;20596;-82
2024/03/02 04:10:45;;;;;;;20.35;2.40;;;;;;;2.18;100.00;91799.59;2110794;28;20024;-82
2024/03/02 04:11:46;;;;;;;16.67;2.05;;;;;;;2.12;100.00;91811.00;2107122;28;20016;-82
2024/03/02 04:12:49;;;;;;;11.43;2.00;;;;;;;2.10;100.00;91811.38;2115416;28;20020;-81
2024/03/02 04:13:50;;;;;;;3.55;1.67;;;;;;;2.15;100.00;91805.69;2107020;28;20059;-82
2024/03/02 04:14:50;;;;;;;15.05;1.80;;;;;;;2.09;100.00;91798.59;2096528;28;20020;-82
2024/03/02 04:15:51;;;;;;;10.93;1.90;;;;;;;2.09;100.00;91812.50;2098548;28;20028;-82
2024/03/02 04:16:52;;;;;;;12.00;2.17;;;;;;;2.07;100.00;91814.06;2098557;28;20027;-82
2024/03/02 04:17:53;;;;;;;7.88;1.73;;;;;;;1.95;100.00;91808.16;2107013;28;20522;-81
2024/03/02 04:18:54;;;;;;;9.20;1.70;;;;;;;1.97;100.00;91800.59;2115174;28;20031;-82
2024/03/02 04:19:55;;;;;;;3.90;1.60;;;;;;;1.98;100.00;91799.47;2106880;28;20020;-83
2024/03/02 04:20:58;;;;;;;10.32;1.80;;;;;;;1.97;100.00;91810.38;2098803;28;20372;-82
2024/03/02 04:22:00;;;;;;;3.47;1.83;;;;;;;2.17;100.00;91807.91;2099691;28;20024;-82
2024/03/02 04:23:01;;;;;;;3.90;1.65;;;;;;;2.14;100.00;91808.69;2115755;27;20487;-82
2024/03/02 04:24:03;;;;;;;13.05;2.15;;;;;;;1.99;100.00;91800.22;2123757;27;20852;-81
2024/03/02 04:25:04;;;;;;;7.75;2.10;;;;;;;2.10;100.00;91800.81;2115461;28;20023;-82
2024/03/02 04:26:05;;;;;;;4.35;1.92;;;;;;;2.01;100.00;91803.19;2106601;28;20027;-82
2024/03/02 04:27:06;;;;;;;15.32;2.47;;;;;;;2.15;100.00;91805.69;2115538;28;20035;-82
2024/03/02 04:28:12;;;;;;;8.45;2.42;;;;;;;2.12;100.00;91805.72;2115352;28;20024;-81
2024/03/02 04:29:13;;;;;;;2.00;1.90;;;;;;;2.10;100.00;91798.19;2113747;27;20088;-83
2024/03/02 04:30:14;;;;;;;5.68;2.40;;;;;;;1.99;100.00;91810.75;2115304;28;20721;-82
2024/03/02 04:31:16;;;;;;;3.65;2.28;;;;;;;2.05;100.00;91803.91;2106914;28;20035;-82
2024/03/02 04:32:17;;;;;;;5.78;2.00;;;;;;;2.10;100.00;91805.34;2106922;28;20024;-82
2024/03/02 04:33:18;;;;;;;9.32;2.30;;;;;;;2.11;100.00;91804.22;2106842;28;20031;-81
2024/03/02 04:34:19;;;;;;;6.93;2.40;;;;;;;2.05;100.00;91806.53;2103288;28;20043;-83
2024/03/02 04:35:21;;;;;;;4.55;2.38;;;;;;;2.03;100.00;91802.81;2113134;28;20020;-82
2024/03/02 04:36:22;;;;;;;2.35;2.15;;;;;;;2.21;100.00;91808.63;2123853;27;20026;-82
2024/03/02 04:37:22;;;;;;;2.00;1.90;;;;;;;2.23;100.00;91808.97;2123466;27;20019;-83
2024/03/02 04:38:23;;;;;;;2.42;2.22;;;;;;;2.49;100.00;91805.63;2115286;28;20024;-81
2024/03/02 04:39:24;;;;;;;2.30;2.20;;;;;;;2.29;100.00;91804.75;2115050;28;20446;-82
2024/03/02 04:40:25;;;;;;;2.10;2.00;;;;;;;2.24;100.00;91802.56;2115160;28;20349;-82
2024/03/02 04:41:29;;;;;;;2.15;2.05;;;;;;;2.32;100.00;91800.56;2114098;27;20439;-82
2024/03/02 04:42:30;;;;;;;2.20;2.10;;;;;;;2.33;100.00;91802.84;2123577;27;20027;-82
2024/03/02 04:43:31;;;;;;;2.20;2.10;;;;;;;2.21;100.00;91811.25;2121439;27;20015;-82
2024/03/02 04:44:32;;;;;;;2.30;2.10;;;;;;;2.27;100.00;91801.75;2101982;28;20024;-82
2024/03/02 04:45:33;;;;;;;2.20;2.10;;;;;;;2.33;100.00;91809.97;2102639;28;20519;-82
2024/03/02 04:46:34;;;;;;;2.20;2.10;;;;;;;2.33;100.00;91800.19;2106433;28;20016;-82
2024/03/02 04:47:35;;;;;;;2.50;2.40;;;;;;;2.34;100.00;91803.59;2110693;28;20031;-82
2024/03/02 04:48:36;;;;;;;2.13;2.03;;;;;;;2.27;100.00;91801.75;2098314;28;20040;-81
2024/03/02 04:49:37;;;;;;;2.30;2.20;;;;;;;2.15;100.00;91808.31;2089393;28;20048;-81
2024/03/02 04:50:38;;;;;;;2.20;2.10;;;;;;;2.09;100.00;91811.78;2098111;28;20021;-82
2024/03/02 04:51:39;;;;;;;2.17;2.08;;;;;;;2.20;100.00;91802.59;2106784;28;20028;-83